createdAt,value
2023-01-31T00:01:05.287Z,57.80
2023-01-31T00:03:31.843Z,57.80
2023-01-31T00:05:58.358Z,57.80
2023-01-31T00:08:24.865Z,57.80
2023-01-31T00:10:51.370Z,57.80
2023-01-31T00:13:17.873Z,57.80
2023-01-31T00:15:44.382Z,57.70
2023-01-31T00:18:13.610Z,57.80
2023-01-31T00:20:40.118Z,57.80
2023-01-31T00:23:06.597Z,57.80
2023-01-31T00:25:33.107Z,57.70
2023-01-31T00:27:59.639Z,57.80
2023-01-31T00:30:26.123Z,57.80
2023-01-31T00:32:52.622Z,57.80
2023-01-31T00:35:19.408Z,57.80
2023-01-31T00:37:46.046Z,57.80
2023-01-31T00:40:12.539Z,57.80
2023-01-31T00:42:39.061Z,57.80
2023-01-31T00:45:05.558Z,57.80
2023-01-31T00:47:32.049Z,57.80
2023-01-31T00:49:58.580Z,57.80
2023-01-31T00:52:25.113Z,57.80
2023-01-31T00:54:51.609Z,57.60
2023-01-31T00:57:18.115Z,57.60
2023-01-31T00:59:44.649Z,57.80
2023-01-31T01:02:11.177Z,57.80
2023-01-31T01:04:37.676Z,57.70
2023-01-31T01:07:04.195Z,57.80
2023-01-31T01:09:30.693Z,57.80
2023-01-31T01:11:57.200Z,57.80
2023-01-31T01:14:23.699Z,57.70
2023-01-31T01:16:50.211Z,57.70
2023-01-31T01:19:16.708Z,57.80
2023-01-31T01:21:43.221Z,57.80
2023-01-31T01:24:09.712Z,57.70
2023-01-31T01:26:36.776Z,57.80
2023-01-31T01:29:03.293Z,57.70
2023-01-31T01:31:30.382Z,57.80
2023-01-31T01:34:01.707Z,57.70
2023-01-31T01:36:28.196Z,57.70
2023-01-31T01:38:54.673Z,57.70
2023-01-31T01:41:21.173Z,57.70
2023-01-31T01:43:47.678Z,57.70
2023-01-31T01:46:14.277Z,57.70
2023-01-31T01:48:40.817Z,57.70
2023-01-31T01:51:07.328Z,57.70
2023-01-31T01:53:33.857Z,57.70
2023-01-31T01:56:00.367Z,57.70
2023-01-31T01:58:26.888Z,57.70
2023-01-31T02:00:53.433Z,57.70
2023-01-31T02:03:19.925Z,57.70
2023-01-31T02:05:46.400Z,57.70
2023-01-31T02:08:12.883Z,57.70
2023-01-31T02:10:43.698Z,57.80
2023-01-31T02:13:10.200Z,57.70
2023-01-31T02:15:36.693Z,57.70
2023-01-31T02:18:03.191Z,57.70
2023-01-31T02:20:29.687Z,57.80
2023-01-31T02:22:56.179Z,57.70
2023-01-31T02:25:22.957Z,57.70
2023-01-31T02:27:49.496Z,57.70
2023-01-31T02:30:16.179Z,57.60
2023-01-31T02:32:42.668Z,57.70
2023-01-31T02:35:09.181Z,57.70
2023-01-31T02:37:35.662Z,57.70
2023-01-31T02:40:02.159Z,57.50
2023-01-31T02:42:28.669Z,57.60
2023-01-31T02:44:55.203Z,57.60
2023-01-31T02:47:22.149Z,57.70
2023-01-31T02:49:48.704Z,57.60
2023-01-31T02:52:15.207Z,57.50
2023-01-31T02:54:41.704Z,57.50
2023-01-31T02:57:08.209Z,57.50
2023-01-31T02:59:34.690Z,57.50
2023-01-31T03:02:01.250Z,57.50
2023-01-31T03:04:27.772Z,57.60
2023-01-31T03:06:54.246Z,57.50
2023-01-31T03:09:21.004Z,57.60
2023-01-31T03:11:47.482Z,57.50
2023-01-31T03:14:13.943Z,57.50
2023-01-31T03:16:40.504Z,57.50
2023-01-31T03:19:07.038Z,57.50
2023-01-31T03:21:34.321Z,57.50
2023-01-31T03:24:00.791Z,57.40
2023-01-31T03:26:27.321Z,57.50
2023-01-31T03:28:53.823Z,57.50
2023-01-31T03:31:20.386Z,57.50
2023-01-31T03:33:46.957Z,57.50
2023-01-31T03:36:13.441Z,57.60
2023-01-31T03:38:39.904Z,57.50
2023-01-31T03:41:06.394Z,57.50
2023-01-31T03:43:32.878Z,57.50
2023-01-31T03:45:59.399Z,57.50
2023-01-31T03:48:25.898Z,57.50
2023-01-31T03:50:52.403Z,57.50
2023-01-31T03:53:18.887Z,57.50
2023-01-31T03:55:49.778Z,57.50
2023-01-31T03:58:16.748Z,57.30
2023-01-31T04:00:43.284Z,57.40
2023-01-31T04:03:09.767Z,57.40
2023-01-31T04:05:36.277Z,57.40
2023-01-31T04:08:02.753Z,57.40
2023-01-31T04:10:29.250Z,57.40
2023-01-31T04:12:55.755Z,57.40
2023-01-31T04:15:22.538Z,57.40
2023-01-31T04:17:49.209Z,57.40
2023-01-31T04:20:15.689Z,57.40
2023-01-31T04:22:42.149Z,57.40
2023-01-31T04:25:08.626Z,57.20
2023-01-31T04:27:35.090Z,57.30
2023-01-31T04:30:01.585Z,57.40
2023-01-31T04:32:28.066Z,57.40
2023-01-31T04:34:54.565Z,57.40
2023-01-31T04:37:21.176Z,57.40
2023-01-31T04:39:47.645Z,57.20
2023-01-31T04:42:14.163Z,57.40
2023-01-31T04:44:40.649Z,57.40
2023-01-31T04:47:07.655Z,57.40
2023-01-31T04:49:34.227Z,57.40
2023-01-31T04:52:00.709Z,57.40
2023-01-31T04:54:27.174Z,57.30
2023-01-31T04:56:53.664Z,57.40
2023-01-31T04:59:20.155Z,57.20
2023-01-31T05:01:46.612Z,57.40
2023-01-31T05:04:13.103Z,57.40
2023-01-31T05:06:39.588Z,57.40
2023-01-31T05:09:06.528Z,57.40
2023-01-31T05:11:33.121Z,57.30
2023-01-31T05:13:59.596Z,57.30
2023-01-31T05:16:26.081Z,57.40
2023-01-31T05:18:52.584Z,57.40
2023-01-31T05:21:19.835Z,57.40
2023-01-31T05:23:46.305Z,57.40
2023-01-31T05:26:13.866Z,57.20
2023-01-31T05:28:40.362Z,57.30
2023-01-31T05:31:07.072Z,57.30
2023-01-31T05:33:33.837Z,57.30
2023-01-31T05:36:00.382Z,57.10
2023-01-31T05:38:26.862Z,57.30
2023-01-31T05:40:53.361Z,57.40
2023-01-31T05:43:19.836Z,57.50
2023-01-31T05:45:46.361Z,57.40
2023-01-31T05:48:12.870Z,57.50
2023-01-31T05:50:39.394Z,57.50
2023-01-31T05:53:06.301Z,57.40
2023-01-31T05:55:33.321Z,57.50
2023-01-31T05:58:00.101Z,57.40
2023-01-31T06:00:26.594Z,57.50
2023-01-31T06:02:53.123Z,57.50
2023-01-31T06:05:19.987Z,57.50
2023-01-31T06:07:46.662Z,57.50
2023-01-31T06:10:13.126Z,57.50
2023-01-31T06:12:39.601Z,57.50
2023-01-31T06:15:06.084Z,57.50
2023-01-31T06:17:33.015Z,57.50
2023-01-31T06:19:59.503Z,57.50
2023-01-31T06:22:26.302Z,57.60
2023-01-31T06:24:52.775Z,57.60
2023-01-31T06:27:19.333Z,57.60
2023-01-31T06:29:45.812Z,57.60
2023-01-31T06:32:12.280Z,57.50
2023-01-31T06:34:38.763Z,57.60
2023-01-31T06:37:05.236Z,57.60
2023-01-31T06:39:31.764Z,57.40
2023-01-31T06:41:58.305Z,57.60
2023-01-31T06:44:26.519Z,57.50
2023-01-31T06:46:53.179Z,57.50
2023-01-31T06:49:19.662Z,57.40
2023-01-31T06:51:46.170Z,57.50
2023-01-31T06:54:12.647Z,57.50
2023-01-31T06:56:39.161Z,57.50
2023-01-31T06:59:05.632Z,57.50
2023-01-31T07:01:32.734Z,57.40
2023-01-31T07:03:59.335Z,57.60
2023-01-31T07:06:25.841Z,57.50
2023-01-31T07:08:52.557Z,57.50
2023-01-31T07:11:19.071Z,57.60
2023-01-31T07:13:45.570Z,57.60
2023-01-31T07:16:12.120Z,57.60
2023-01-31T07:18:38.623Z,57.60
2023-01-31T07:21:05.113Z,57.50
2023-01-31T07:23:31.583Z,57.60
2023-01-31T07:25:58.061Z,57.50
2023-01-31T07:28:24.557Z,57.50
2023-01-31T07:30:51.537Z,57.50
2023-01-31T07:33:18.078Z,57.50
2023-01-31T07:35:44.570Z,57.60
2023-01-31T07:38:11.529Z,57.60
2023-01-31T07:40:38.121Z,57.60
2023-01-31T07:43:04.620Z,57.60
2023-01-31T07:45:31.087Z,57.50
2023-01-31T07:47:57.569Z,57.60
2023-01-31T07:50:24.047Z,57.60
2023-01-31T07:52:50.548Z,57.60
2023-01-31T07:55:17.025Z,57.60
2023-01-31T07:57:43.510Z,57.60
2023-01-31T08:00:09.995Z,57.60
2023-01-31T08:02:36.508Z,57.60
2023-01-31T08:05:03.026Z,57.60
2023-01-31T08:07:29.645Z,57.60
2023-01-31T08:10:01.989Z,57.60
2023-01-31T08:12:28.426Z,57.60
2023-01-31T08:14:54.899Z,57.60
2023-01-31T08:17:21.421Z,57.60
2023-01-31T08:19:47.909Z,57.50
2023-01-31T08:22:14.411Z,57.60
2023-01-31T08:24:44.411Z,57.60
2023-01-31T08:27:10.954Z,57.60
2023-01-31T08:29:37.418Z,57.70
2023-01-31T08:32:03.955Z,57.50
2023-01-31T08:34:30.485Z,57.50
2023-01-31T08:36:56.963Z,57.50
2023-01-31T08:39:23.544Z,57.50
2023-01-31T08:41:50.071Z,57.60
2023-01-31T08:44:16.566Z,57.60
2023-01-31T08:46:43.121Z,57.60
2023-01-31T08:49:09.660Z,57.60
2023-01-31T08:51:36.133Z,57.60
2023-01-31T08:54:02.634Z,57.70
2023-01-31T08:56:29.120Z,57.70
2023-01-31T08:58:55.633Z,57.70
2023-01-31T09:01:22.140Z,57.70
2023-01-31T09:03:48.651Z,57.70
2023-01-31T09:06:15.204Z,57.70
2023-01-31T09:08:41.673Z,57.70
2023-01-31T09:11:08.149Z,57.70
2023-01-31T09:13:34.618Z,57.80
2023-01-31T09:16:01.320Z,57.80
2023-01-31T09:18:27.839Z,57.80
2023-01-31T09:20:54.309Z,57.80
2023-01-31T09:23:20.788Z,57.90
2023-01-31T09:25:48.141Z,57.90
2023-01-31T09:28:14.740Z,57.90
2023-01-31T09:30:41.242Z,57.90
2023-01-31T09:33:07.720Z,57.90
2023-01-31T09:35:34.240Z,58.00
2023-01-31T09:38:00.754Z,58.00
2023-01-31T09:40:27.276Z,58.00
2023-01-31T09:42:53.779Z,58.00
2023-01-31T09:45:20.584Z,57.90
2023-01-31T09:47:47.264Z,58.00
2023-01-31T09:50:13.774Z,58.10
2023-01-31T09:52:40.257Z,58.10
2023-01-31T09:55:06.743Z,58.10
2023-01-31T09:57:33.213Z,58.00
2023-01-31T09:59:59.694Z,58.10
2023-01-31T10:02:26.168Z,58.20
2023-01-31T10:04:52.642Z,58.30
2023-01-31T10:07:19.109Z,58.20
2023-01-31T10:09:45.589Z,58.30
2023-01-31T10:12:12.080Z,58.30
2023-01-31T10:14:38.564Z,58.30
2023-01-31T10:17:05.095Z,58.20
2023-01-31T10:19:31.683Z,58.30
2023-01-31T10:21:58.153Z,58.30
2023-01-31T10:24:24.618Z,58.40
2023-01-31T10:26:56.131Z,58.50
2023-01-31T10:29:22.614Z,58.50
2023-01-31T10:31:50.097Z,58.50
2023-01-31T10:34:16.602Z,58.60
2023-01-31T10:36:43.066Z,58.60
2023-01-31T10:39:14.230Z,58.60
2023-01-31T10:41:40.713Z,58.70
2023-01-31T10:44:07.207Z,58.70
2023-01-31T10:46:33.691Z,58.70
2023-01-31T10:49:00.187Z,58.80
2023-01-31T10:51:26.692Z,58.80
2023-01-31T10:53:53.154Z,58.70
2023-01-31T10:56:19.646Z,58.80
2023-01-31T10:58:46.119Z,58.80
2023-01-31T11:01:12.694Z,58.90
2023-01-31T11:03:39.185Z,58.80
2023-01-31T11:06:05.647Z,58.90
2023-01-31T11:08:32.129Z,58.80
2023-01-31T11:10:58.619Z,58.90
2023-01-31T11:13:25.095Z,58.90
2023-01-31T11:15:51.582Z,59.00
2023-01-31T11:18:18.066Z,59.10
2023-01-31T11:20:44.553Z,59.10
2023-01-31T11:23:11.019Z,58.80
2023-01-31T11:25:44.137Z,59.00
2023-01-31T11:28:10.604Z,59.10
2023-01-31T11:30:37.142Z,59.10
2023-01-31T11:33:03.627Z,59.10
2023-01-31T11:35:30.124Z,59.00
2023-01-31T11:37:56.598Z,59.20
2023-01-31T11:40:23.379Z,59.20
2023-01-31T11:42:49.951Z,59.20
2023-01-31T11:45:16.412Z,59.30
2023-01-31T11:47:42.899Z,59.30
2023-01-31T11:50:14.215Z,59.40
2023-01-31T11:52:40.709Z,59.40
2023-01-31T11:55:07.190Z,59.30
2023-01-31T11:57:33.669Z,59.40
2023-01-31T12:00:00.155Z,59.40
2023-01-31T12:02:26.685Z,59.50
2023-01-31T12:04:53.161Z,59.50
2023-01-31T12:07:19.640Z,59.50
2023-01-31T12:09:46.129Z,59.50
2023-01-31T12:12:12.601Z,59.50
2023-01-31T12:14:39.094Z,59.40
2023-01-31T12:17:05.627Z,59.60
2023-01-31T12:19:32.106Z,59.70
2023-01-31T12:21:58.569Z,59.70
2023-01-31T12:24:25.052Z,59.80
2023-01-31T12:26:51.581Z,59.70
2023-01-31T12:29:18.079Z,59.80
2023-01-31T12:31:44.588Z,59.80
2023-01-31T12:34:11.070Z,59.90
2023-01-31T12:36:37.572Z,59.90
2023-01-31T12:39:04.045Z,59.90
2023-01-31T12:41:30.519Z,59.80
2023-01-31T12:43:57.009Z,59.90
2023-01-31T12:46:23.553Z,60.00
2023-01-31T12:48:50.097Z,60.00
2023-01-31T12:51:16.668Z,60.10
2023-01-31T12:53:43.151Z,60.20
2023-01-31T12:56:09.627Z,60.20
2023-01-31T12:58:36.096Z,60.20
2023-01-31T13:01:02.701Z,60.20
2023-01-31T13:03:29.220Z,60.30
2023-01-31T13:05:55.691Z,60.20
2023-01-31T13:08:22.170Z,60.30
2023-01-31T13:10:48.691Z,60.30
2023-01-31T13:13:15.170Z,60.30
2023-01-31T13:15:41.725Z,60.30
2023-01-31T13:18:08.219Z,60.40
2023-01-31T13:20:34.689Z,60.50
2023-01-31T13:23:01.167Z,60.50
2023-01-31T13:25:27.657Z,60.60
2023-01-31T13:27:54.138Z,60.60
2023-01-31T13:30:20.622Z,60.70
2023-01-31T13:32:47.112Z,60.70
2023-01-31T13:35:13.582Z,60.70
2023-01-31T13:37:44.256Z,60.80
2023-01-31T13:40:10.737Z,60.60
2023-01-31T13:42:37.201Z,60.80
2023-01-31T13:45:03.681Z,60.90
2023-01-31T13:47:30.171Z,60.70
2023-01-31T13:49:56.641Z,60.90
2023-01-31T13:52:23.136Z,60.90
2023-01-31T13:54:49.615Z,61.10
2023-01-31T13:57:20.253Z,61.10
2023-01-31T13:59:46.730Z,61.10
2023-01-31T14:02:13.203Z,61.10
2023-01-31T14:04:40.578Z,61.20
2023-01-31T14:07:07.158Z,61.10
2023-01-31T14:09:42.237Z,61.20
2023-01-31T14:12:08.725Z,61.30
2023-01-31T14:14:35.215Z,61.30
2023-01-31T14:17:01.725Z,61.40
2023-01-31T14:19:28.224Z,61.50
2023-01-31T14:21:54.727Z,61.30
2023-01-31T14:24:21.207Z,61.40
2023-01-31T14:26:47.781Z,61.50
2023-01-31T14:29:14.279Z,61.50
2023-01-31T14:31:40.813Z,61.60
2023-01-31T14:34:07.332Z,61.60
2023-01-31T14:36:33.806Z,61.70
2023-01-31T14:39:00.289Z,61.70
2023-01-31T14:41:26.753Z,61.80
2023-01-31T14:43:53.241Z,61.80
2023-01-31T14:46:19.711Z,61.90
2023-01-31T14:48:46.212Z,61.90
2023-01-31T14:51:12.702Z,61.90
2023-01-31T14:53:39.164Z,62.00
2023-01-31T14:56:05.661Z,61.90
2023-01-31T14:58:32.142Z,62.00
2023-01-31T15:00:58.663Z,62.10
2023-01-31T15:03:25.212Z,62.10
2023-01-31T15:05:51.819Z,62.20
2023-01-31T15:08:20.333Z,62.20
2023-01-31T15:10:46.853Z,62.20
2023-01-31T15:13:13.326Z,62.40
2023-01-31T15:15:39.824Z,62.30
2023-01-31T15:18:06.313Z,62.40
2023-01-31T15:20:32.801Z,62.40
2023-01-31T15:22:59.294Z,62.50
2023-01-31T15:25:25.776Z,62.60
2023-01-31T15:27:52.270Z,62.60
2023-01-31T15:30:18.753Z,62.60
2023-01-31T15:32:50.556Z,62.70
2023-01-31T15:35:17.041Z,63.00
2023-01-31T15:37:43.528Z,62.80
2023-01-31T15:40:10.000Z,62.90
2023-01-31T15:42:36.479Z,63.00
2023-01-31T15:45:02.960Z,63.20
2023-01-31T15:47:30.682Z,63.20
2023-01-31T15:49:59.015Z,63.20
2023-01-31T15:52:25.482Z,63.10
2023-01-31T15:54:51.987Z,63.20
2023-01-31T15:57:18.479Z,63.40
2023-01-31T15:59:45.021Z,63.30
2023-01-31T16:02:11.527Z,63.40
2023-01-31T16:04:38.028Z,63.40
2023-01-31T16:07:04.469Z,63.40
2023-01-31T16:09:30.941Z,63.50
2023-01-31T16:11:57.426Z,63.60
2023-01-31T16:14:23.907Z,63.70
2023-01-31T16:16:50.426Z,63.80
2023-01-31T16:19:16.915Z,63.80
2023-01-31T16:21:43.389Z,63.90
2023-01-31T16:24:09.876Z,64.00
2023-01-31T16:26:36.380Z,64.00
2023-01-31T16:29:02.868Z,64.10
2023-01-31T16:31:29.511Z,64.20
2023-01-31T16:33:56.067Z,64.20
2023-01-31T16:36:22.518Z,64.20
2023-01-31T16:38:49.005Z,64.20
2023-01-31T16:41:20.570Z,64.20
2023-01-31T16:43:47.080Z,64.40
2023-01-31T16:46:13.602Z,64.40
2023-01-31T16:48:40.069Z,64.40
2023-01-31T16:51:06.562Z,64.50
2023-01-31T16:53:33.055Z,64.50
2023-01-31T16:55:59.524Z,64.60
2023-01-31T16:58:26.005Z,64.60
2023-01-31T17:00:52.489Z,64.60
2023-01-31T17:03:18.960Z,64.70
2023-01-31T17:05:47.497Z,64.70
2023-01-31T17:08:14.294Z,64.70
2023-01-31T17:10:44.446Z,64.60
2023-01-31T17:13:10.918Z,64.60
2023-01-31T17:15:37.478Z,64.70
2023-01-31T17:18:03.970Z,64.70
2023-01-31T17:20:30.453Z,64.60
2023-01-31T17:23:02.787Z,64.70
2023-01-31T17:25:30.058Z,64.80
2023-01-31T17:27:56.529Z,64.90
2023-01-31T17:30:23.029Z,64.90
2023-01-31T17:32:49.526Z,64.80
2023-01-31T17:35:16.010Z,64.90
2023-01-31T17:37:42.493Z,64.90
2023-01-31T17:40:08.973Z,64.90
2023-01-31T17:42:35.457Z,64.90
2023-01-31T17:45:01.938Z,65.00
2023-01-31T17:47:28.427Z,64.90
2023-01-31T17:49:54.936Z,64.80
2023-01-31T17:52:21.538Z,64.90
2023-01-31T17:54:48.027Z,64.80
2023-01-31T17:57:14.501Z,64.80
2023-01-31T17:59:40.989Z,64.80
2023-01-31T18:02:07.457Z,64.90
2023-01-31T18:04:33.940Z,64.90
2023-01-31T18:07:00.436Z,65.00
2023-01-31T18:09:26.919Z,64.90
2023-01-31T18:11:53.400Z,65.00
2023-01-31T18:14:19.884Z,64.90
2023-01-31T18:16:46.362Z,65.00
2023-01-31T18:19:12.844Z,65.00
2023-01-31T18:21:44.016Z,64.90
2023-01-31T18:24:16.519Z,64.80
2023-01-31T18:26:44.551Z,65.00
2023-01-31T18:29:11.748Z,65.00
2023-01-31T18:31:38.276Z,64.90
2023-01-31T18:34:04.786Z,65.00
2023-01-31T18:36:31.264Z,65.10
2023-01-31T18:38:57.724Z,65.20
2023-01-31T18:41:24.196Z,65.20
2023-01-31T18:43:50.670Z,65.20
2023-01-31T18:46:17.210Z,65.30
2023-01-31T18:48:43.754Z,65.30
2023-01-31T18:51:14.500Z,65.30
2023-01-31T18:53:40.969Z,65.30
2023-01-31T18:56:07.466Z,65.10
2023-01-31T18:58:33.932Z,65.10
2023-01-31T19:01:00.482Z,65.40
2023-01-31T19:03:26.961Z,65.30
2023-01-31T19:05:53.436Z,65.30
2023-01-31T19:08:19.919Z,65.40
2023-01-31T19:10:46.421Z,65.10
2023-01-31T19:13:12.888Z,65.30
2023-01-31T19:15:39.394Z,65.30
2023-01-31T19:18:05.866Z,65.30
2023-01-31T19:20:32.348Z,65.30
2023-01-31T19:22:58.816Z,65.20
2023-01-31T19:25:25.298Z,65.20
2023-01-31T19:27:56.525Z,65.20
2023-01-31T19:30:22.991Z,65.20
2023-01-31T19:32:49.482Z,65.30
2023-01-31T19:35:15.966Z,65.30
2023-01-31T19:37:42.437Z,65.30
2023-01-31T19:40:08.917Z,65.30
2023-01-31T19:42:35.399Z,65.30
2023-01-31T19:45:01.888Z,65.20
2023-01-31T19:47:28.359Z,65.20
2023-01-31T19:49:54.849Z,65.10
2023-01-31T19:52:21.336Z,65.20
2023-01-31T19:54:50.522Z,65.10
2023-01-31T19:57:17.009Z,65.10
2023-01-31T19:59:43.483Z,65.10
2023-01-31T20:02:14.578Z,65.10
2023-01-31T20:04:41.080Z,65.10
2023-01-31T20:07:07.551Z,65.00
2023-01-31T20:09:34.036Z,65.10
2023-01-31T20:12:00.545Z,65.00
2023-01-31T20:14:27.029Z,65.10
2023-01-31T20:16:53.563Z,65.00
2023-01-31T20:19:20.614Z,65.10
2023-01-31T20:21:50.577Z,65.10
2023-01-31T20:24:17.090Z,65.00
2023-01-31T20:26:43.611Z,64.90
2023-01-31T20:29:10.122Z,64.70
2023-01-31T20:31:36.636Z,64.80
2023-01-31T20:34:08.774Z,64.80
2023-01-31T20:36:35.272Z,64.80
2023-01-31T20:39:01.750Z,64.80
2023-01-31T20:41:28.243Z,64.80
2023-01-31T20:43:54.712Z,64.80
2023-01-31T20:46:21.251Z,64.80
2023-01-31T20:48:47.736Z,64.70
2023-01-31T20:51:14.229Z,64.70
2023-01-31T20:53:40.728Z,64.60
2023-01-31T20:56:07.185Z,64.60
2023-01-31T20:58:33.667Z,64.70
2023-01-31T21:01:00.306Z,64.70
2023-01-31T21:03:26.836Z,64.70
2023-01-31T21:05:53.303Z,64.50
2023-01-31T21:08:19.780Z,64.50
2023-01-31T21:10:46.237Z,64.60
2023-01-31T21:13:12.716Z,64.60
2023-01-31T21:15:39.210Z,64.60
2023-01-31T21:18:05.709Z,64.50
2023-01-31T21:20:32.196Z,64.50
2023-01-31T21:22:58.694Z,64.50
2023-01-31T21:25:25.237Z,64.50
2023-01-31T21:27:56.632Z,64.40
2023-01-31T21:30:23.336Z,64.40
2023-01-31T21:32:49.912Z,64.40
2023-01-31T21:35:16.390Z,64.30
2023-01-31T21:37:42.871Z,64.30
2023-01-31T21:40:14.709Z,64.30
2023-01-31T21:42:42.915Z,64.20
2023-01-31T21:45:09.521Z,64.20
2023-01-31T21:47:36.021Z,64.20
2023-01-31T21:50:02.520Z,64.30
2023-01-31T21:52:29.037Z,64.30
2023-01-31T21:54:55.502Z,64.20
2023-01-31T21:57:22.005Z,64.20
2023-01-31T21:59:48.503Z,64.20
2023-01-31T22:02:15.016Z,64.20
2023-01-31T22:04:41.530Z,64.20
2023-01-31T22:07:07.998Z,64.20
2023-01-31T22:09:34.508Z,64.10
2023-01-31T22:12:01.069Z,64.10
2023-01-31T22:14:27.525Z,64.10
2023-01-31T22:16:53.991Z,64.20
2023-01-31T22:19:20.480Z,64.00
2023-01-31T22:21:47.013Z,64.20
2023-01-31T22:24:13.499Z,64.20
2023-01-31T22:26:39.996Z,64.10
2023-01-31T22:29:06.483Z,64.10
2023-01-31T22:31:33.055Z,63.90
2023-01-31T22:33:59.624Z,64.10
2023-01-31T22:36:26.120Z,64.10
2023-01-31T22:38:52.602Z,64.10
2023-01-31T22:41:20.232Z,64.10
2023-01-31T22:43:46.885Z,64.00
2023-01-31T22:46:13.377Z,64.00
2023-01-31T22:48:39.918Z,63.90
2023-01-31T22:51:06.401Z,64.10
2023-01-31T22:53:32.894Z,64.10
2023-01-31T22:56:02.893Z,64.00
2023-01-31T22:58:29.350Z,64.00
2023-01-31T23:00:55.829Z,64.10
2023-01-31T23:03:22.331Z,64.00
2023-01-31T23:05:49.903Z,64.00
2023-01-31T23:08:16.391Z,64.00
2023-01-31T23:10:42.877Z,64.00
2023-01-31T23:13:09.341Z,64.10
2023-01-31T23:15:35.929Z,64.00
2023-01-31T23:18:02.447Z,64.00
2023-01-31T23:20:28.910Z,64.00
2023-01-31T23:22:55.385Z,63.90
2023-01-31T23:25:21.871Z,64.00
2023-01-31T23:27:48.345Z,64.00
2023-01-31T23:30:14.840Z,64.00
2023-01-31T23:32:43.052Z,64.00
2023-01-31T23:35:09.688Z,64.00
2023-01-31T23:37:36.302Z,64.00
2023-01-31T23:40:02.806Z,64.00
2023-01-31T23:42:29.284Z,64.00
2023-01-31T23:44:55.758Z,64.00
2023-01-31T23:47:22.228Z,63.90
2023-01-31T23:49:48.710Z,63.90
2023-01-31T23:52:15.206Z,64.00
2023-01-31T23:54:41.689Z,64.10
2023-01-31T23:57:08.161Z,64.10
2023-01-31T23:59:34.668Z,64.00
